Time,TemperatureF,DewpointF,PressureIn,WindDirection,WindDirectionDegrees,WindSpeedMPH,WindSpeedGustMPH,Humidity,HourlyPrecipIn,Conditions,Clouds,dailyrainin,SolarRadiationWatts/m^2,SoftwareType,DateUTC
2013-11-20 00:01:00,32.0,32.0,-100.00,WNW,294,5.0,12.0,100,0.00,,,0.01,0.000000,,2013-11-20 07:01:00,
2013-11-20 00:42:00,32.0,32.0,-100.00,SW,229,5.0,12.0,100,0.00,,,0.01,0.000000,,2013-11-20 07:42:00,
2013-11-20 00:52:00,32.0,32.0,-100.00,SW,229,5.0,12.0,100,0.00,,,0.01,0.000000,,2013-11-20 07:52:00,
2013-11-20 01:02:00,32.0,32.0,-100.00,SW,229,5.0,12.0,100,0.00,,,0.01,0.000000,,2013-11-20 08:02:00,
2013-11-20 01:42:00,32.0,32.0,-100.00,SW,216,5.0,14.0,100,0.00,,,0.01,0.000000,,2013-11-20 08:42:00,
2013-11-20 01:52:00,32.0,32.0,-100.00,SW,216,5.0,14.0,100,0.00,,,0.01,0.000000,,2013-11-20 08:52:00,
2013-11-20 02:02:00,32.0,32.0,-100.00,SW,216,5.0,14.0,100,0.00,,,0.01,0.000000,,2013-11-20 09:02:00,
2013-11-20 02:44:00,31.0,31.0,-100.00,SSW,211,9.0,12.0,100,0.00,,,0.01,0.000000,,2013-11-20 09:44:00,
2013-11-20 02:54:00,31.0,31.0,-100.00,SSW,211,9.0,12.0,100,0.00,,,0.01,0.000000,,2013-11-20 09:54:00,
2013-11-20 03:03:00,31.0,31.0,-100.00,SSW,211,9.0,12.0,100,0.00,,,0.01,0.000000,,2013-11-20 10:03:00,
2013-11-20 03:43:00,31.0,31.0,-100.00,SSW,212,5.0,14.0,100,0.00,,,0.01,0.000000,,2013-11-20 10:43:00,
2013-11-20 03:53:00,31.0,31.0,-100.00,SSW,212,5.0,14.0,100,0.00,,,0.01,0.000000,,2013-11-20 10:53:00,
2013-11-20 04:02:00,31.0,31.0,-100.00,SSW,212,5.0,14.0,100,0.00,,,0.01,0.000000,,2013-11-20 11:02:00,
2013-11-20 04:43:00,31.0,31.0,-100.00,SSW,203,5.0,7.0,100,0.00,,,0.01,0.000000,,2013-11-20 11:43:00,
2013-11-20 04:52:00,31.0,31.0,-100.00,SSW,203,5.0,7.0,100,0.00,,,0.01,0.000000,,2013-11-20 11:52:00,
2013-11-20 05:02:00,31.0,31.0,-100.00,SSW,203,5.0,7.0,100,0.00,,,0.01,0.000000,,2013-11-20 12:02:00,
2013-11-20 05:42:00,31.0,31.0,-100.00,SW,230,4.0,7.0,100,0.00,,,0.01,0.000000,,2013-11-20 12:42:00,
2013-11-20 05:52:00,31.0,31.0,-100.00,SW,230,4.0,7.0,100,0.00,,,0.01,0.000000,,2013-11-20 12:52:00,
2013-11-20 06:01:00,31.0,31.0,-100.00,SW,230,4.0,7.0,100,0.00,,,0.01,0.000000,,2013-11-20 13:01:00,
2013-11-20 06:42:00,30.0,30.0,-100.00,SW,221,6.0,9.0,100,0.00,,,0.01,0.000000,,2013-11-20 13:42:00,
2013-11-20 06:52:00,30.0,30.0,-100.00,SW,221,6.0,9.0,100,0.00,,,0.01,0.000000,,2013-11-20 13:52:00,
2013-11-20 07:02:00,30.0,30.0,-100.00,SW,221,6.0,9.0,100,0.00,,,0.01,0.000000,,2013-11-20 14:02:00,
2013-11-20 07:42:00,29.0,29.0,-100.00,WNW,288,8.0,14.0,100,0.00,,,0.01,0.000000,,2013-11-20 14:42:00,
2013-11-20 07:52:00,29.0,29.0,-100.00,WNW,288,8.0,14.0,100,0.00,,,0.01,0.000000,,2013-11-20 14:52:00,
2013-11-20 08:01:00,29.0,29.0,-100.00,WNW,288,8.0,14.0,100,0.00,,,0.01,0.000000,,2013-11-20 15:01:00,
2013-11-20 08:43:00,26.0,23.0,-100.00,NW,320,17.0,27.0,90,0.00,,,0.01,1.000000,,2013-11-20 15:43:00,
2013-11-20 08:53:00,26.0,23.0,-100.00,NW,320,17.0,27.0,90,0.00,,,0.01,1.000000,,2013-11-20 15:53:00,
2013-11-20 09:03:00,26.0,23.0,-100.00,NW,320,17.0,27.0,90,0.00,,,0.01,1.000000,,2013-11-20 16:03:00,
2013-11-20 09:43:00,24.0,19.0,-100.00,NW,317,12.0,23.0,81,0.00,,,0.01,16.000000,,2013-11-20 16:43:00,
2013-11-20 09:52:00,24.0,19.0,-100.00,NW,317,12.0,23.0,81,0.00,,,0.01,16.000000,,2013-11-20 16:52:00,
2013-11-20 10:02:00,24.0,19.0,-100.00,NW,317,12.0,23.0,81,0.00,,,0.01,16.000000,,2013-11-20 17:02:00,
2013-11-20 10:42:00,23.0,18.0,-100.00,WNW,299,13.0,22.0,82,0.00,,,0.01,54.000000,,2013-11-20 17:42:00,
2013-11-20 10:52:00,23.0,18.0,-100.00,WNW,299,13.0,22.0,82,0.00,,,0.01,54.000000,,2013-11-20 17:52:00,
2013-11-20 11:01:00,23.0,18.0,-100.00,WNW,299,13.0,22.0,82,0.00,,,0.01,54.000000,,2013-11-20 18:01:00,
2013-11-20 11:43:00,23.0,16.0,-100.00,WNW,302,11.0,20.0,75,0.00,,,0.01,105.000000,,2013-11-20 18:43:00,
2013-11-20 11:52:00,23.0,16.0,-100.00,WNW,302,11.0,20.0,75,0.00,,,0.01,105.000000,,2013-11-20 18:52:00,
2013-11-20 12:02:00,23.0,16.0,-100.00,WNW,302,11.0,20.0,75,0.00,,,0.01,105.000000,,2013-11-20 19:02:00,
2013-11-20 12:42:00,24.0,15.0,-100.00,WNW,292,9.0,20.0,69,0.00,,,0.00,134.000000,,2013-11-20 19:42:00,
2013-11-20 12:52:00,24.0,15.0,-100.00,WNW,292,9.0,20.0,69,0.00,,,0.00,134.000000,,2013-11-20 19:52:00,
2013-11-20 13:01:00,24.0,15.0,-100.00,WNW,292,9.0,20.0,69,0.00,,,0.00,134.000000,,2013-11-20 20:01:00,
2013-11-20 13:42:00,26.0,16.0,-100.00,West,271,10.0,19.0,65,0.00,,,0.00,191.000000,,2013-11-20 20:42:00,
2013-11-20 13:52:00,26.0,16.0,-100.00,West,271,10.0,19.0,65,0.00,,,0.00,191.000000,,2013-11-20 20:52:00,
2013-11-20 14:02:00,26.0,16.0,-100.00,West,271,10.0,19.0,65,0.00,,,0.00,191.000000,,2013-11-20 21:02:00,
2013-11-20 14:43:00,23.0,15.0,-100.00,NW,321,7.0,16.0,72,0.00,,,0.00,157.000000,,2013-11-20 21:43:00,
2013-11-20 14:53:00,23.0,15.0,-100.00,NW,321,7.0,16.0,72,0.00,,,0.00,157.000000,,2013-11-20 21:53:00,
2013-11-20 15:03:00,23.0,15.0,-100.00,NW,321,7.0,16.0,72,0.00,,,0.00,157.000000,,2013-11-20 22:03:00,
2013-11-20 15:42:00,25.0,13.0,-100.00,WNW,288,9.0,14.0,61,0.00,,,0.00,251.000000,,2013-11-20 22:42:00,
2013-11-20 15:53:00,25.0,13.0,-100.00,WNW,288,9.0,14.0,61,0.00,,,0.00,251.000000,,2013-11-20 22:53:00,
2013-11-20 16:02:00,25.0,13.0,-100.00,WNW,288,9.0,14.0,61,0.00,,,0.00,251.000000,,2013-11-20 23:02:00,
2013-11-20 16:43:00,21.0,12.0,-100.00,NW,309,9.0,13.0,67,0.00,,,0.00,274.000000,,2013-11-20 23:43:00,
2013-11-20 16:52:00,21.0,12.0,-100.00,NW,309,9.0,13.0,67,0.00,,,0.00,274.000000,,2013-11-20 23:52:00,
2013-11-20 17:02:00,21.0,12.0,-100.00,NW,309,9.0,13.0,67,0.00,,,0.00,274.000000,,2013-11-21 00:02:00,
2013-11-20 17:42:00,19.0,11.0,-100.00,NW,317,10.0,14.0,69,0.00,,,0.00,67.000000,,2013-11-21 00:42:00,
2013-11-20 17:52:00,19.0,11.0,-100.00,NW,317,10.0,14.0,69,0.00,,,0.00,67.000000,,2013-11-21 00:52:00,
2013-11-20 18:02:00,19.0,11.0,-100.00,NW,317,10.0,14.0,69,0.00,,,0.00,67.000000,,2013-11-21 01:02:00,
2013-11-20 18:42:00,16.0,10.0,-100.00,North,1,7.0,16.0,76,0.00,,,0.00,0.000000,,2013-11-21 01:42:00,
2013-11-20 18:52:00,16.0,10.0,-100.00,North,1,7.0,16.0,76,0.00,,,0.00,0.000000,,2013-11-21 01:52:00,
2013-11-20 19:01:00,16.0,10.0,-100.00,North,1,7.0,16.0,76,0.00,,,0.00,0.000000,,2013-11-21 02:01:00,
2013-11-20 19:52:00,16.0,10.0,-100.00,NNE,14,6.0,10.0,76,0.00,,,0.00,0.000000,,2013-11-21 02:52:00,
2013-11-20 20:02:00,16.0,10.0,-100.00,NNE,14,6.0,10.0,76,0.00,,,0.00,0.000000,,2013-11-21 03:02:00,
2013-11-20 20:43:00,15.0,9.0,-100.00,North,3,6.0,9.0,76,0.00,,,0.00,0.000000,,2013-11-21 03:43:00,
2013-11-20 20:54:00,15.0,9.0,-100.00,North,3,6.0,9.0,76,0.00,,,0.00,0.000000,,2013-11-21 03:54:00,
2013-11-20 21:03:00,15.0,9.0,-100.00,North,3,6.0,9.0,76,0.00,,,0.00,0.000000,,2013-11-21 04:03:00,
2013-11-20 21:43:00,14.0,9.0,-100.00,North,1,7.0,11.0,79,0.00,,,0.00,0.000000,,2013-11-21 04:43:00,
2013-11-20 21:53:00,14.0,9.0,-100.00,North,1,7.0,11.0,79,0.00,,,0.00,0.000000,,2013-11-21 04:53:00,
2013-11-20 22:02:00,14.0,9.0,-100.00,North,1,7.0,11.0,79,0.00,,,0.00,0.000000,,2013-11-21 05:02:00,
2013-11-20 22:43:00,13.0,8.0,-100.00,North,4,7.0,13.0,81,0.00,,,0.00,0.000000,,2013-11-21 05:43:00,
2013-11-20 22:52:00,13.0,8.0,-100.00,North,4,7.0,13.0,81,0.00,,,0.00,0.000000,,2013-11-21 05:52:00,
2013-11-20 23:03:00,13.0,8.0,-100.00,North,4,7.0,13.0,81,0.00,,,0.00,0.000000,,2013-11-21 06:03:00,
2013-11-20 23:43:00,11.0,7.0,-100.00,North,8,7.0,11.0,82,0.00,,,0.00,0.000000,,2013-11-21 06:43:00,
2013-11-20 23:52:00,11.0,7.0,-100.00,North,8,7.0,11.0,82,0.00,,,0.00,0.000000,,2013-11-21 06:52:00,